Terminal Aerodrome Forecast
Issued by NWS Billings, MT

Home | Current Version | Previous Version | Text Only | Print | Product List | Glossary On
Versions: 1 2 3 4 5 6 7 8 9 10 11 12 13 14 15 16 17 18 19 20 21 22 23 24 25 26 27 28 29 30 31 32 33 34 35 36
000
FTUS45 KBYZ 312127 AAD
TAFBIL
TAF AMD
KBIL 312127Z 3121/0118 03014KT 2SM -SN BR BKN020 OVC030
      TEMPO 3121/3123 3/4SM -SN BKN010 OVC018
     FM312300 03012KT 6SM -SN BKN030 OVC050
     FM010300 05008KT P6SM BKN030 OVC050
     FM011300 23008KT P6SM SCT060=

USA.gov is the U.S. government's official web portal to all federal, state and local government web resources and services.